createdAt,value
2019-05-25T07:12:12.553Z,78.50
2019-05-25T07:14:42.479Z,79.00
2019-05-25T07:17:12.419Z,77.40
2019-05-25T07:19:42.437Z,78.00
2019-05-25T07:22:12.057Z,78.10
2019-05-25T07:24:41.995Z,76.50
2019-05-25T07:27:11.373Z,75.80
2019-05-25T07:29:40.160Z,74.20
2019-05-25T07:32:08.905Z,75.00
2019-05-25T07:34:39.012Z,75.40
2019-05-25T07:37:07.762Z,74.90
2019-05-25T07:39:36.426Z,74.30
2019-05-25T07:42:06.365Z,74.00
2019-05-25T07:44:35.697Z,74.60
2019-05-25T07:47:04.496Z,74.30
2019-05-25T07:49:35.191Z,73.90
2019-05-25T07:52:04.410Z,74.50
2019-05-25T07:54:34.733Z,73.70
2019-05-25T07:57:03.581Z,73.90
2019-05-25T07:59:32.368Z,71.60
2019-05-25T08:02:02.674Z,73.20
2019-05-25T08:04:31.657Z,71.50
2019-05-25T08:07:00.359Z,72.20
2019-05-25T08:09:30.938Z,70.80
2019-05-25T08:11:59.702Z,68.80
2019-05-25T08:14:29.666Z,68.50
2019-05-25T08:16:58.554Z,64.80
2019-05-25T08:19:28.856Z,64.00
2019-05-25T08:22:02.816Z,64.50
2019-05-25T08:24:31.677Z,65.20
2019-05-25T08:27:00.643Z,65.50
2019-05-25T08:29:30.897Z,64.60
2019-05-25T08:31:59.654Z,65.30
2019-05-25T08:34:30.681Z,64.80
2019-05-25T08:36:59.637Z,65.00
2019-05-25T08:39:28.654Z,64.80
2019-05-25T08:41:57.455Z,64.10
2019-05-25T08:44:26.235Z,64.50
2019-05-25T08:46:57.867Z,63.90
2019-05-25T08:49:26.984Z,63.70
2019-05-25T08:51:56.622Z,63.30
2019-05-25T08:54:25.477Z,62.80
2019-05-25T08:56:54.301Z,61.60
2019-05-25T08:59:23.232Z,61.20
2019-05-25T09:01:53.887Z,62.90
2019-05-25T09:04:25.519Z,61.10
2019-05-25T09:06:53.141Z,60.90
2019-05-25T09:09:22.367Z,61.30
2019-05-25T09:11:52.992Z,60.40
2019-05-25T09:14:21.929Z,58.70
2019-05-25T09:16:51.878Z,59.90
2019-05-25T09:19:20.621Z,59.60
2019-05-25T09:22:02.020Z,60.60
2019-05-25T09:24:19.855Z,60.70
2019-05-25T09:26:49.323Z,60.60
2019-05-25T09:29:19.156Z,62.60
2019-05-25T09:31:48.526Z,64.00
2019-05-25T09:34:17.263Z,64.50
2019-05-25T09:36:46.654Z,65.50
2019-05-25T09:39:17.225Z,64.60
2019-05-25T09:41:47.304Z,63.20
2019-05-25T09:44:16.795Z,62.80
2019-05-25T09:46:46.758Z,62.90
2019-05-25T09:49:17.181Z,61.20
2019-05-25T09:51:48.643Z,59.30
2019-05-25T09:54:16.319Z,58.10
2019-05-25T09:56:45.029Z,57.70
2019-05-25T09:59:19.969Z,56.70
2019-05-25T10:01:44.282Z,54.80
2019-05-25T10:04:14.254Z,51.20
2019-05-25T10:06:43.178Z,48.20
2019-05-25T10:09:12.183Z,49.20
2019-05-25T10:11:45.039Z,51.80
2019-05-25T10:14:13.826Z,53.00
2019-05-25T10:16:42.587Z,54.30
2019-05-25T10:19:13.215Z,53.00
2019-05-25T10:24:50.917Z,52.30
2019-05-25T10:31:01.304Z,47.00
2019-05-25T10:33:29.740Z,42.80
2019-05-25T10:35:59.490Z,39.10
2019-05-25T10:38:28.233Z,40.00
2019-05-25T10:40:58.650Z,43.00
2019-05-25T10:43:27.592Z,44.00
2019-05-25T10:45:56.370Z,45.60
2019-05-25T10:48:25.208Z,46.50
2019-05-25T10:50:54.260Z,44.90
2019-05-25T10:53:23.621Z,43.30
2019-05-25T10:55:53.427Z,41.90
2019-05-25T10:58:22.581Z,40.00
2019-05-25T11:00:53.383Z,38.60
2019-05-25T11:03:22.258Z,36.70
2019-05-25T11:05:51.059Z,34.30
2019-05-25T11:08:21.718Z,33.00
2019-05-25T11:10:50.623Z,34.40
2019-05-25T11:13:19.463Z,37.10
2019-05-25T11:15:52.675Z,36.90
2019-05-25T11:18:21.717Z,37.90
2019-05-25T11:20:52.413Z,39.40
2019-05-25T11:24:24.501Z,40.90
2019-05-25T11:26:48.842Z,42.10
2019-05-25T11:29:17.684Z,42.80
2019-05-25T11:31:55.534Z,42.60
2019-05-25T11:34:17.894Z,43.20
2019-05-25T11:36:48.577Z,43.90
2019-05-25T11:39:20.118Z,44.60
2019-05-25T11:41:49.005Z,45.50
2019-05-25T11:44:17.973Z,45.50
2019-05-25T11:46:46.687Z,46.80
2019-05-25T11:49:22.438Z,47.30
2019-05-25T11:51:45.954Z,47.60
2019-05-25T11:54:16.278Z,47.40
2019-05-25T11:56:46.679Z,47.00
2019-05-25T11:59:17.214Z,46.00
2019-05-25T12:01:46.052Z,45.40
2019-05-25T12:04:14.782Z,45.80
2019-05-25T12:06:44.041Z,46.00
2019-05-25T12:09:14.316Z,46.40
2019-05-25T12:11:46.156Z,45.50
2019-05-25T12:14:16.299Z,44.90
2019-05-25T12:16:47.574Z,42.70
2019-05-25T12:19:16.620Z,40.50
2019-05-25T12:21:46.298Z,40.50
2019-05-25T12:24:16.941Z,40.10
2019-05-25T12:26:46.702Z,39.70
2019-05-25T12:29:16.897Z,40.80
2019-05-25T12:31:45.706Z,37.90
2019-05-25T12:34:14.414Z,35.50
2019-05-25T12:39:31.600Z,33.80
2019-05-25T12:42:01.764Z,35.10
2019-05-25T12:44:34.474Z,39.30
2019-05-25T12:47:03.457Z,40.60
2019-05-25T12:49:49.383Z,40.30
2019-05-25T12:52:05.784Z,40.00
2019-05-25T12:54:37.992Z,39.00
2019-05-25T12:57:06.643Z,40.90
2019-05-25T12:59:36.169Z,40.50
2019-05-25T13:02:05.043Z,40.70
2019-05-25T13:04:34.721Z,39.50
2019-05-25T13:07:05.424Z,38.00
2019-05-25T13:09:34.214Z,37.30
2019-05-25T13:12:04.568Z,38.90
2019-05-25T13:14:33.265Z,40.00
2019-05-25T13:17:01.998Z,40.00
2019-05-25T13:19:32.196Z,41.00
2019-05-25T13:22:01.000Z,41.90
2019-05-25T13:24:30.215Z,42.10
2019-05-25T13:26:59.246Z,42.10
2019-05-25T13:29:28.015Z,42.90
2019-05-25T13:31:58.049Z,44.30
2019-05-25T13:34:26.820Z,45.60
2019-05-25T13:36:57.069Z,47.00
2019-05-25T13:39:25.872Z,46.90
2019-05-25T13:41:55.906Z,46.00
2019-05-25T13:44:24.646Z,46.00
2019-05-25T13:46:55.818Z,47.40
2019-05-25T13:49:26.461Z,47.60
2019-05-25T13:51:56.634Z,48.80
2019-05-25T13:54:30.344Z,49.20
2019-05-25T13:57:00.049Z,49.70
2019-05-25T13:59:30.141Z,48.90
2019-05-25T14:01:59.154Z,49.90
2019-05-25T14:04:35.695Z,49.90
2019-05-25T14:07:05.895Z,50.00
2019-05-25T14:09:34.637Z,50.70
2019-05-25T14:12:04.508Z,51.40
2019-05-25T14:14:33.288Z,50.60
2019-05-25T14:17:02.049Z,50.20
2019-05-25T14:19:31.010Z,49.30
2019-05-25T14:21:59.856Z,49.20
2019-05-25T14:24:30.005Z,50.30
2019-05-25T14:26:58.801Z,49.90
2019-05-25T14:29:27.549Z,49.20
2019-05-25T14:31:56.339Z,49.90
2019-05-25T14:34:25.937Z,48.60
2019-05-25T14:36:54.746Z,49.80
2019-05-25T14:39:23.466Z,50.70
2019-05-25T14:41:52.193Z,51.70
2019-05-25T14:44:21.008Z,51.40
2019-05-25T14:46:50.846Z,52.00
2019-05-25T14:49:19.643Z,52.60
2019-05-25T14:51:48.433Z,53.20
2019-05-25T14:54:18.066Z,53.40
2019-05-25T14:56:46.830Z,53.40
2019-05-25T14:59:16.115Z,53.10
2019-05-25T15:02:01.317Z,53.00
2019-05-25T15:04:18.453Z,53.40
2019-05-25T15:06:47.174Z,53.80
2019-05-25T15:09:17.584Z,53.90
2019-05-25T15:11:47.608Z,54.60
2019-05-25T15:14:16.366Z,54.40
2019-05-25T15:16:49.024Z,53.70
2019-05-25T15:19:18.469Z,54.40
2019-05-25T15:21:48.500Z,54.10
2019-05-25T15:24:17.870Z,54.70
2019-05-25T15:26:49.772Z,55.20
2019-05-25T15:29:18.522Z,55.70
2019-05-25T15:31:47.259Z,55.80
2019-05-25T15:34:16.537Z,55.40
2019-05-25T15:36:48.215Z,55.50
2019-05-25T15:39:20.799Z,55.40
2019-05-25T15:41:51.311Z,55.60
2019-05-25T15:44:20.458Z,55.70
2019-05-25T15:46:51.001Z,55.50
2019-05-25T15:49:21.043Z,55.60
2019-05-25T15:51:49.829Z,55.70
2019-05-25T15:54:18.781Z,56.20
2019-05-25T15:56:47.540Z,56.40
2019-05-25T15:59:16.721Z,56.70
2019-05-25T16:01:46.094Z,56.50
2019-05-25T16:04:23.918Z,56.90
2019-05-25T16:06:52.645Z,56.40
2019-05-25T16:09:21.403Z,56.80
2019-05-25T16:11:50.284Z,57.00
2019-05-25T16:14:19.293Z,56.70
2019-05-25T16:16:48.131Z,56.60
2019-05-25T16:19:17.184Z,56.40
2019-05-25T16:21:45.935Z,56.50
2019-05-25T16:24:14.633Z,56.50
2019-05-25T16:26:46.332Z,56.40
2019-05-25T16:29:15.373Z,56.30
2019-05-25T16:31:44.223Z,55.60
2019-05-25T16:34:14.442Z,54.70
2019-05-25T16:36:43.319Z,55.00
2019-05-25T16:39:12.044Z,55.20
2019-05-25T16:41:41.085Z,55.40
2019-05-25T16:44:10.441Z,56.10
2019-05-25T16:46:42.964Z,56.90
2019-05-25T16:49:11.793Z,57.70
2019-05-25T16:51:40.516Z,58.20
2019-05-25T16:54:09.262Z,58.70
2019-05-25T16:56:38.666Z,58.90
2019-05-25T16:59:07.493Z,59.20
2019-05-25T17:01:47.558Z,59.20
2019-05-25T17:04:06.785Z,59.10
2019-05-25T17:06:35.662Z,58.90
2019-05-25T17:09:07.322Z,58.90
2019-05-25T17:11:37.725Z,58.70
2019-05-25T17:14:08.486Z,59.30
2019-05-25T17:16:36.925Z,59.40
2019-05-25T17:19:07.583Z,59.60
2019-05-25T17:21:39.006Z,60.00
2019-05-25T17:24:08.908Z,60.80
2019-05-25T17:26:37.789Z,60.20
2019-05-25T17:29:08.901Z,59.90
2019-05-25T17:31:37.863Z,60.30
2019-05-25T17:34:06.670Z,60.30
2019-05-25T17:36:36.383Z,60.00
2019-05-25T17:39:07.368Z,60.80
2019-05-25T17:41:36.151Z,62.90
2019-05-25T17:44:05.773Z,63.80
2019-05-25T17:46:34.501Z,64.60
2019-05-25T17:49:03.622Z,65.40
2019-05-25T17:51:32.336Z,65.70
2019-05-25T17:54:01.145Z,66.30
2019-05-25T17:56:29.918Z,66.50
2019-05-25T17:58:58.824Z,66.90
2019-05-25T18:01:28.199Z,67.20
2019-05-25T18:04:06.434Z,67.60
2019-05-25T18:06:27.567Z,68.10
2019-05-25T18:08:56.337Z,68.30
2019-05-25T18:11:26.663Z,68.60
2019-05-25T18:13:55.774Z,68.90
2019-05-25T18:16:24.684Z,69.40
2019-05-25T18:18:54.404Z,69.80
2019-05-25T18:21:24.000Z,69.60
2019-05-25T18:24:17.833Z,69.00
2019-05-25T18:26:49.542Z,68.90
2019-05-25T18:29:18.213Z,69.20
2019-05-25T18:31:48.342Z,68.30
2019-05-25T18:34:21.939Z,68.50
2019-05-25T18:36:50.525Z,68.70
2019-05-25T18:39:19.318Z,68.90
2019-05-25T18:41:48.053Z,68.70
2019-05-25T18:44:18.706Z,68.80
2019-05-25T18:46:47.724Z,68.90
2019-05-25T18:49:16.997Z,68.90
2019-05-25T18:51:46.788Z,69.70
2019-05-25T18:54:17.561Z,68.80
2019-05-25T18:56:46.888Z,68.80
2019-05-25T18:59:15.684Z,69.20
2019-05-25T19:01:46.373Z,68.90
2019-05-25T19:04:15.929Z,69.70
2019-05-25T19:06:45.968Z,70.00
2019-05-25T19:09:15.291Z,70.10
2019-05-25T19:11:45.817Z,70.20
2019-05-25T19:14:14.642Z,70.40
2019-05-25T19:16:43.438Z,70.50
2019-05-25T19:19:13.272Z,70.50
2019-05-25T19:21:42.053Z,70.50
2019-05-25T19:24:12.703Z,70.20
2019-05-25T19:26:41.588Z,70.20
2019-05-25T19:29:10.771Z,70.00
2019-05-25T19:31:42.549Z,69.80
2019-05-25T19:34:12.947Z,69.80
2019-05-25T19:36:42.274Z,69.80
2019-05-25T19:39:12.232Z,69.90
2019-05-25T19:41:41.167Z,70.00
2019-05-25T19:44:09.983Z,70.00
2019-05-25T19:46:38.739Z,70.30
2019-05-25T19:49:08.825Z,70.50
2019-05-25T19:51:38.935Z,70.20
2019-05-25T19:54:07.963Z,69.70
2019-05-25T19:56:37.804Z,69.50
2019-05-25T19:59:06.738Z,69.50
2019-05-25T20:01:36.385Z,69.40
2019-05-25T20:04:05.239Z,69.10
2019-05-25T20:06:34.603Z,69.20
2019-05-25T20:09:03.496Z,68.70
2019-05-25T20:11:32.407Z,68.50
2019-05-25T20:14:02.403Z,68.60
2019-05-25T20:16:32.621Z,68.00
2019-05-25T20:19:02.824Z,67.90
2019-05-25T20:21:36.296Z,67.70
2019-05-25T20:24:05.045Z,67.60
2019-05-25T20:26:34.763Z,67.50
2019-05-25T20:29:03.477Z,67.10
2019-05-25T20:31:32.404Z,67.20
2019-05-25T20:34:01.367Z,67.20
2019-05-25T20:36:30.233Z,67.20
2019-05-25T20:38:59.008Z,67.10
2019-05-25T20:41:27.810Z,67.20
2019-05-25T20:43:56.657Z,66.90
2019-05-25T20:46:25.946Z,67.40
2019-05-25T20:48:54.785Z,66.60
2019-05-25T20:51:24.317Z,66.90
2019-05-25T20:53:54.290Z,67.30
2019-05-25T21:37:39.409Z,72.40
2019-05-25T21:43:48.865Z,73.20
2019-05-25T21:46:18.551Z,73.60
2019-05-25T21:48:48.748Z,73.90
2019-05-25T21:51:17.414Z,74.40
